Time;durP1;ratioP1;P1;durP2;ratioP2;P2;SDS_P1;SDS_P2;PMS_P1;PMS_P2;Temp;Humidity;BMP_temperature;BMP_pressure;BME280_temperature;BME280_humidity;BME280_pressure;Samples;Min_cycle;Max_cycle;Signal;HPM_P1;HPM_P2
2023/12/09 00:01:05;;;;;;;30.05;27.75;;;;;;;0.33;100.00;101632.34;5037640;28;20072;-71
2023/12/09 00:03:32;;;;;;;31.17;28.77;;;;;;;0.37;100.00;101630.34;5026054;28;20077;-71
2023/12/09 00:05:59;;;;;;;30.92;28.40;;;;;;;0.29;100.00;101638.75;5025147;28;20054;-76
2023/12/09 00:08:29;;;;;;;29.52;27.20;;;;;;;0.36;100.00;101636.50;5025654;28;20053;-76
2023/12/09 00:10:57;;;;;;;29.30;26.90;;;;;;;0.28;100.00;101631.88;5029702;28;20061;-70
2023/12/09 00:13:26;;;;;;;29.58;27.08;;;;;;;0.19;100.00;101640.41;5026524;28;20056;-71
2023/12/09 00:15:54;;;;;;;29.83;27.50;;;;;;;0.29;100.00;101636.16;5025800;28;20057;-71
2023/12/09 00:18:21;;;;;;;30.77;28.33;;;;;;;0.18;100.00;101636.13;5032476;28;20049;-78
2023/12/09 00:20:48;;;;;;;30.25;27.63;;;;;;;0.26;100.00;101627.72;5024038;28;20499;-71
2023/12/09 00:23:23;;;;;;;30.63;28.25;;;;;;;0.29;100.00;101632.72;5030243;28;20061;-77
2023/12/09 00:25:52;;;;;;;29.98;27.58;;;;;;;0.34;100.00;101631.41;5033385;28;20050;-72
2023/12/09 00:28:20;;;;;;;34.47;31.30;;;;;;;0.37;100.00;101633.78;5035276;28;20041;-71
2023/12/09 00:30:47;;;;;;;32.53;29.85;;;;;;;0.28;100.00;101641.50;5028884;28;20135;-71
2023/12/09 00:33:15;;;;;;;27.35;25.25;;;;;;;0.30;100.00;101637.81;5030889;28;20434;-71
2023/12/09 00:35:42;;;;;;;31.48;29.15;;;;;;;0.23;100.00;101647.06;5034060;28;20050;-76
2023/12/09 00:38:10;;;;;;;31.40;28.98;;;;;;;0.23;100.00;101637.44;5027404;28;20045;-71
2023/12/09 00:40:37;;;;;;;28.42;26.23;;;;;;;0.12;100.00;101647.03;5025242;28;20049;-76
2023/12/09 00:43:03;;;;;;;29.23;26.92;;;;;;;0.14;100.00;101643.38;5027695;28;20053;-76
2023/12/09 00:45:38;;;;;;;30.17;27.77;;;;;;;0.26;100.00;101649.44;5024010;28;20045;-77
2023/12/09 00:48:05;;;;;;;31.67;28.80;;;;;;;0.12;100.00;101647.03;5022552;28;20761;-76
2023/12/09 00:50:36;;;;;;;31.17;28.42;;;;;;;0.20;100.00;101649.91;5033259;28;20065;-72
2023/12/09 00:53:06;;;;;;;28.27;26.17;;;;;;;0.26;100.00;101643.41;5026291;28;20072;-75
2023/12/09 00:55:33;;;;;;;27.55;25.45;;;;;;;0.15;100.00;101644.19;5018880;28;20049;-71
2023/12/09 00:58:01;;;;;;;29.58;27.15;;;;;;;0.18;100.00;101634.38;5032262;28;20049;-71
2023/12/09 01:00:28;;;;;;;31.30;27.98;;;;;;;0.21;100.00;101654.19;5036731;28;20041;-76
2023/12/09 01:02:55;;;;;;;32.97;30.48;;;;;;;0.26;100.00;101646.00;5036860;28;20805;-70
2023/12/09 01:05:22;;;;;;;31.60;29.10;;;;;;;0.16;100.00;101646.69;5031477;28;20137;-71
2023/12/09 01:07:50;;;;;;;30.15;27.40;;;;;;;0.18;100.00;101650.03;5044264;28;20498;-71
2023/12/09 01:10:17;;;;;;;33.65;30.75;;;;;;;0.08;100.00;101656.06;5034926;28;20064;-77
2023/12/09 01:12:44;;;;;;;34.40;31.48;;;;;;;0.11;100.00;101654.03;5032357;28;20057;-76
2023/12/09 01:15:13;;;;;;;31.20;28.80;;;;;;;0.21;100.00;101644.59;5030616;28;20045;-71
2023/12/09 01:17:40;;;;;;;34.55;32.05;;;;;;;0.18;100.00;101655.28;5032444;28;20762;-71
2023/12/09 01:20:08;;;;;;;34.60;31.92;;;;;;;0.15;100.00;101649.41;5034951;28;20053;-71
2023/12/09 01:22:35;;;;;;;32.88;30.00;;;;;;;0.20;100.00;101649.91;5032909;28;20064;-71
2023/12/09 01:25:03;;;;;;;37.67;34.17;;;;;;;0.39;100.00;101654.56;5023195;28;20077;-76
2023/12/09 01:27:32;;;;;;;33.95;31.45;;;;;;;0.11;100.00;101653.22;5023312;28;20096;-71
2023/12/09 01:29:59;;;;;;;37.20;34.50;;;;;;;0.06;100.00;101657.94;5028237;28;20049;-71
2023/12/09 01:32:29;;;;;;;31.20;28.90;;;;;;;-0.01;100.00;101655.78;5027664;28;20461;-71
2023/12/09 01:34:57;;;;;;;28.75;26.38;;;;;;;-0.06;100.00;101649.25;5028685;28;20065;-71
2023/12/09 01:37:24;;;;;;;30.60;28.05;;;;;;;-0.15;100.00;101644.69;5029377;28;20136;-71
2023/12/09 01:39:51;;;;;;;29.75;27.40;;;;;;;-0.13;100.00;101646.25;5046393;28;20053;-71
2023/12/09 01:42:19;;;;;;;29.95;27.65;;;;;;;-0.07;100.00;101637.13;5035139;28;20438;-70
2023/12/09 01:44:46;;;;;;;30.17;27.85;;;;;;;-0.10;100.00;101638.19;5032406;28;20054;-71
2023/12/09 01:47:14;;;;;;;28.35;26.05;;;;;;;-0.09;100.00;101641.63;5042188;28;20045;-71
2023/12/09 01:49:42;;;;;;;30.67;28.15;;;;;;;-0.08;100.00;101643.31;5027913;28;20450;-71
2023/12/09 01:52:09;;;;;;;35.20;32.50;;;;;;;-0.16;100.00;101645.66;5032087;28;20053;-77
2023/12/09 01:54:36;;;;;;;35.35;32.55;;;;;;;-0.15;100.00;101640.34;5020417;28;20053;-77
2023/12/09 01:57:03;;;;;;;30.05;27.73;;;;;;;-0.07;100.00;101645.78;5034060;28;20041;-77
2023/12/09 01:59:32;;;;;;;29.40;26.98;;;;;;;-0.11;100.00;101639.16;5032617;28;20434;-77
2023/12/09 02:02:07;;;;;;;26.63;24.60;;;;;;;-0.11;100.00;101641.75;5032240;28;20041;-76
2023/12/09 02:04:38;;;;;;;28.83;26.55;;;;;;;-0.08;100.00;101635.47;5024848;28;20469;-77
2023/12/09 02:07:05;;;;;;;32.65;27.63;;;;;;;-0.09;100.00;101631.19;5020994;28;20037;-77
2023/12/09 02:09:33;;;;;;;25.25;23.35;;;;;;;-0.09;100.00;101626.81;5028304;28;20049;-77
2023/12/09 02:12:06;;;;;;;28.52;25.70;;;;;;;-0.09;100.00;101625.97;5032289;28;20103;-77
2023/12/09 02:14:46;;;;;;;30.67;28.05;;;;;;;-0.12;100.00;101627.03;5032494;28;20050;-77
2023/12/09 02:17:21;;;;;;;32.25;29.77;;;;;;;-0.13;100.00;101627.16;5023521;28;20522;-77
2023/12/09 02:19:48;;;;;;;28.95;26.75;;;;;;;-0.18;100.00;101624.91;5031087;28;20499;-77
2023/12/09 02:22:18;;;;;;;33.60;31.05;;;;;;;-0.16;100.00;101625.59;5038932;28;20056;-77
2023/12/09 02:24:46;;;;;;;28.40;26.20;;;;;;;-0.23;100.00;101619.16;5034676;28;20058;-77
2023/12/09 02:27:40;;;;;;;38.83;36.13;;;;;;;-0.18;100.00;101619.66;5029104;28;20045;-77
2023/12/09 02:30:12;;;;;;;32.45;30.05;;;;;;;-0.20;100.00;101620.72;5022134;28;20046;-77
2023/12/09 02:32:40;;;;;;;30.10;27.65;;;;;;;-0.29;100.00;101617.84;5040537;28;20060;-77
2023/12/09 02:35:11;;;;;;;29.15;26.95;;;;;;;-0.21;100.00;101619.91;5031948;28;20132;-77
2023/12/09 02:37:40;;;;;;;28.35;26.15;;;;;;;-0.33;100.00;101621.63;5029607;28;20049;-76
2023/12/09 02:40:10;;;;;;;28.30;26.15;;;;;;;-0.21;100.00;101619.03;5029974;28;20076;-77
2023/12/09 02:42:38;;;;;;;30.88;28.55;;;;;;;-0.23;100.00;101624.38;5036819;28;20134;-77
2023/12/09 02:45:08;;;;;;;29.88;27.10;;;;;;;-0.26;100.00;101629.84;5029168;28;20775;-71
2023/12/09 02:47:35;;;;;;;29.13;26.92;;;;;;;-0.38;100.00;101617.69;5029404;28;20103;-70
2023/12/09 02:50:02;;;;;;;27.05;24.52;;;;;;;-0.38;100.00;101625.53;5019666;28;20049;-71
2023/12/09 02:52:29;;;;;;;28.80;26.60;;;;;;;-0.37;100.00;101635.84;5032180;28;20045;-71
2023/12/09 02:54:56;;;;;;;26.23;24.20;;;;;;;-0.29;100.00;101625.66;5028042;28;20064;-71
2023/12/09 02:57:24;;;;;;;28.30;26.10;;;;;;;-0.15;100.00;101634.25;5025422;28;20490;-70
2023/12/09 02:59:51;;;;;;;29.67;27.20;;;;;;;-0.29;100.00;101635.28;5033130;28;20132;-71
2023/12/09 03:02:18;;;;;;;31.13;28.52;;;;;;;-0.40;100.00;101628.22;5029839;28;20640;-77
2023/12/09 03:04:45;;;;;;;31.58;29.20;;;;;;;-0.55;100.00;101619.75;5036819;28;20679;-77
2023/12/09 03:07:13;;;;;;;30.73;28.33;;;;;;;-0.57;100.00;101645.13;5024710;28;20057;-71
2023/12/09 03:09:40;;;;;;;32.38;29.92;;;;;;;-0.57;100.00;101639.91;5027937;28;20131;-77
2023/12/09 03:12:07;;;;;;;30.90;28.50;;;;;;;-0.40;100.00;101630.84;5027446;28;20058;-77
2023/12/09 03:14:37;;;;;;;27.58;25.10;;;;;;;-0.59;100.00;101638.34;5024699;28;20065;-71
2023/12/09 03:17:05;;;;;;;30.63;28.13;;;;;;;-0.47;100.00;101635.69;5023424;28;20056;-71
2023/12/09 03:19:32;;;;;;;30.20;27.70;;;;;;;-0.60;100.00;101624.47;5026016;28;20060;-71
2023/12/09 03:21:59;;;;;;;32.60;30.20;;;;;;;-0.67;100.00;101641.50;5030014;28;20429;-77
2023/12/09 03:24:26;;;;;;;32.47;29.98;;;;;;;-0.57;100.00;101641.69;5020753;28;20053;-77
2023/12/09 03:27:03;;;;;;;31.60;29.20;;;;;;;-0.53;100.00;101627.47;5027346;28;20049;-77
2023/12/09 03:29:36;;;;;;;31.92;29.52;;;;;;;-0.65;100.00;101637.00;5028801;28;20049;-77
2023/12/09 03:32:03;;;;;;;35.10;32.50;;;;;;;-0.66;100.00;101626.69;5017506;28;20050;-77
2023/12/09 03:34:29;;;;;;;32.72;30.10;;;;;;;-0.57;100.00;101626.03;5022069;28;20049;-77
2023/12/09 03:36:56;;;;;;;33.70;31.10;;;;;;;-0.50;100.00;101628.06;5027593;28;20080;-77
2023/12/09 03:39:23;;;;;;;30.15;27.75;;;;;;;-0.48;100.00;101623.59;5030869;28;20049;-77
2023/12/09 03:41:56;;;;;;;29.83;27.63;;;;;;;-0.60;100.00;101619.25;5039391;28;20053;-77
2023/12/09 03:44:24;;;;;;;35.65;32.53;;;;;;;-0.63;100.00;101614.25;5027966;28;20454;-71
2023/12/09 03:46:52;;;;;;;30.65;28.05;;;;;;;-0.59;100.00;101607.03;5035376;28;20049;-71
2023/12/09 03:49:19;;;;;;;26.05;23.98;;;;;;;-0.60;100.00;101623.66;5036919;28;20084;-71
2023/12/09 03:51:46;;;;;;;31.15;28.67;;;;;;;-0.83;100.00;101620.06;5024115;28;20052;-71
2023/12/09 03:54:16;;;;;;;30.88;28.58;;;;;;;-0.60;100.00;101613.22;5029596;28;20064;-71
2023/12/09 03:56:44;;;;;;;31.90;29.48;;;;;;;-0.71;100.00;101625.25;5025412;28;20045;-70
2023/12/09 03:59:11;;;;;;;28.70;26.40;;;;;;;-0.80;100.00;101633.72;5020442;28;20057;-71
2023/12/09 04:01:47;;;;;;;31.02;28.60;;;;;;;-0.83;100.00;101628.72;5030009;28;20056;-71
2023/12/09 04:04:16;;;;;;;34.55;31.95;;;;;;;-0.81;100.00;101620.81;5031814;28;20049;-71
2023/12/09 04:06:43;;;;;;;33.72;30.90;;;;;;;-0.85;100.00;101614.13;5028466;28;20052;-70
2023/12/09 04:09:10;;;;;;;30.23;27.73;;;;;;;-0.84;100.00;101621.84;5028568;28;20054;-70
2023/12/09 04:11:37;;;;;;;29.15;26.85;;;;;;;-0.90;100.00;101621.47;5024104;28;20057;-70
2023/12/09 04:14:05;;;;;;;33.33;30.92;;;;;;;-0.81;100.00;101623.41;5032613;28;20049;-71
2023/12/09 04:16:32;;;;;;;33.95;31.42;;;;;;;-0.79;100.00;101626.72;5031498;28;20107;-71
2023/12/09 04:18:59;;;;;;;28.38;26.27;;;;;;;-0.76;100.00;101629.94;5032015;28;20063;-71
2023/12/09 04:21:27;;;;;;;32.70;30.17;;;;;;;-0.78;100.00;101639.69;5028645;28;20049;-71
2023/12/09 04:23:55;;;;;;;29.80;27.52;;;;;;;-0.77;100.00;101637.91;5033015;28;20049;-70
2023/12/09 04:26:25;;;;;;;33.70;30.55;;;;;;;-0.78;100.00;101637.06;5034187;28;20494;-70
2023/12/09 04:28:52;;;;;;;32.10;29.67;;;;;;;-0.87;100.00;101642.13;5038797;28;20063;-71
2023/12/09 04:31:19;;;;;;;29.50;27.30;;;;;;;-0.87;100.00;101644.72;5034487;28;20049;-71
2023/12/09 04:33:46;;;;;;;29.67;27.38;;;;;;;-0.88;100.00;101648.25;5029646;28;20065;-70
2023/12/09 04:36:13;;;;;;;27.40;25.40;;;;;;;-0.82;100.00;101651.25;5042876;28;20056;-77
2023/12/09 04:38:43;;;;;;;28.10;26.00;;;;;;;-0.86;100.00;101660.25;5030414;28;20060;-71
2023/12/09 04:41:10;;;;;;;28.85;26.45;;;;;;;-0.85;100.00;101656.69;5049198;28;20051;-71
2023/12/09 04:43:38;;;;;;;33.17;30.67;;;;;;;-1.01;100.00;101656.13;5032810;28;20048;-76
2023/12/09 04:46:05;;;;;;;35.78;33.30;;;;;;;-0.86;100.00;101657.63;5033591;28;20073;-76
2023/12/09 04:48:33;;;;;;;40.50;37.50;;;;;;;-1.01;100.00;101659.56;5026571;28;20053;-71
2023/12/09 04:51:00;;;;;;;33.38;30.85;;;;;;;-0.80;100.00;101667.63;5031742;28;20040;-71
2023/12/09 04:53:27;;;;;;;29.77;27.48;;;;;;;-0.81;100.00;101659.94;5033551;28;20057;-70
2023/12/09 04:55:58;;;;;;;30.15;27.85;;;;;;;-0.71;100.00;101659.16;5032671;28;20057;-70
2023/12/09 04:58:25;;;;;;;33.33;30.75;;;;;;;-0.81;100.00;101665.16;5035809;28;20392;-71
2023/12/09 05:00:52;;;;;;;36.85;33.97;;;;;;;-0.81;100.00;101665.16;5027639;28;20061;-70
2023/12/09 05:03:18;;;;;;;32.80;30.33;;;;;;;-0.84;100.00;101663.59;5026407;28;20064;-71
2023/12/09 05:05:45;;;;;;;31.48;29.13;;;;;;;-0.81;100.00;101665.16;5028717;28;20280;-71
2023/12/09 05:08:12;;;;;;;33.92;31.48;;;;;;;-0.80;100.00;101667.63;5038097;28;20045;-71
2023/12/09 05:10:39;;;;;;;38.58;34.90;;;;;;;-0.78;100.00;101664.94;5033061;28;20057;-71
2023/12/09 05:13:07;;;;;;;33.45;30.95;;;;;;;-0.67;100.00;101662.38;5034585;28;20061;-71
2023/12/09 05:15:34;;;;;;;32.10;29.65;;;;;;;-0.70;100.00;101671.28;5034843;28;20049;-70
2023/12/09 05:18:02;;;;;;;40.47;37.58;;;;;;;-0.77;100.00;101675.25;5038061;28;20049;-71
2023/12/09 05:20:29;;;;;;;34.65;31.88;;;;;;;-0.85;100.00;101674.13;5031034;28;20713;-70
2023/12/09 05:22:56;;;;;;;35.55;32.70;;;;;;;-0.90;100.00;101673.63;5034916;28;20068;-70
2023/12/09 05:25:23;;;;;;;31.30;29.00;;;;;;;-0.87;100.00;101674.25;5033703;28;20045;-71
2023/12/09 05:27:50;;;;;;;30.52;28.33;;;;;;;-0.87;100.00;101695.13;5034681;28;20521;-70
2023/12/09 05:30:19;;;;;;;31.10;28.55;;;;;;;-0.90;100.00;101697.09;5031277;28;20057;-70
2023/12/09 05:32:46;;;;;;;31.95;29.40;;;;;;;-0.86;100.00;101701.97;5024928;28;20070;-76
2023/12/09 05:35:13;;;;;;;33.47;30.33;;;;;;;-0.78;100.00;101707.50;5020820;28;20056;-76
2023/12/09 05:37:40;;;;;;;25.52;23.63;;;;;;;-0.83;100.00;101706.16;5027434;28;20053;-77
2023/12/09 05:40:08;;;;;;;29.85;27.30;;;;;;;-0.78;100.00;101711.91;5035077;28;20048;-76
2023/12/09 05:42:35;;;;;;;28.75;26.40;;;;;;;-0.76;100.00;101712.59;5022026;28;20057;-77
2023/12/09 05:45:07;;;;;;;30.20;28.00;;;;;;;-0.66;100.00;101720.63;5041337;28;20045;-77
2023/12/09 05:47:35;;;;;;;26.90;24.83;;;;;;;-0.70;100.00;101722.59;5032039;28;20430;-77
2023/12/09 05:50:02;;;;;;;27.35;25.35;;;;;;;-0.94;100.00;101726.00;5027828;28;20046;-77
2023/12/09 05:52:31;;;;;;;28.15;26.15;;;;;;;-0.82;100.00;101726.06;5028558;28;20434;-70
2023/12/09 05:54:59;;;;;;;28.33;26.23;;;;;;;-0.90;100.00;101728.41;5032254;28;20485;-71
2023/12/09 05:57:28;;;;;;;26.73;24.77;;;;;;;-0.87;100.00;101736.84;5027096;28;20063;-70
2023/12/09 05:59:55;;;;;;;26.90;25.00;;;;;;;-0.74;100.00;101742.03;5025800;28;20054;-70
2023/12/09 06:02:22;;;;;;;27.13;25.33;;;;;;;-0.84;100.00;101748.84;5033312;28;20046;-70
2023/12/09 06:04:51;;;;;;;28.50;25.90;;;;;;;-0.79;100.00;101741.50;5033798;28;20407;-70
2023/12/09 06:07:18;;;;;;;28.85;26.95;;;;;;;-0.86;100.00;101750.72;5024123;28;20138;-70
2023/12/09 06:09:45;;;;;;;28.17;26.27;;;;;;;-0.81;100.00;101751.25;5025987;28;20972;-70
2023/12/09 06:12:12;;;;;;;25.80;24.00;;;;;;;-0.33;100.00;101753.94;5027948;28;20049;-76
2023/12/09 06:14:39;;;;;;;28.92;26.83;;;;;;;-0.41;100.00;101754.47;5018284;28;20056;-76
2023/12/09 06:17:05;;;;;;;27.13;25.15;;;;;;;-0.79;100.00;101754.56;5027033;28;20038;-76
2023/12/09 06:19:32;;;;;;;26.83;25.13;;;;;;;-0.77;100.00;101760.50;5028087;28;20046;-76
2023/12/09 06:22:01;;;;;;;25.60;24.00;;;;;;;-0.65;100.00;101762.28;5019904;28;20057;-76
2023/12/09 06:24:26;;;;;;;25.67;24.05;;;;;;;-0.73;100.00;101756.75;5026474;28;20067;-70
2023/12/09 06:26:53;;;;;;;28.73;26.77;;;;;;;-0.61;100.00;101755.88;5028161;28;20049;-70
2023/12/09 06:29:20;;;;;;;33.75;31.38;;;;;;;-0.81;100.00;101764.28;5026124;28;20479;-70
2023/12/09 06:31:47;;;;;;;34.78;32.25;;;;;;;-0.68;100.00;101765.09;5021577;28;20053;-76
2023/12/09 06:34:14;;;;;;;28.52;26.48;;;;;;;-0.73;100.00;101767.19;5022859;28;20037;-70
2023/12/09 06:36:41;;;;;;;30.90;28.20;;;;;;;-0.64;100.00;101765.72;5021911;28;20495;-76
2023/12/09 06:39:09;;;;;;;27.90;26.10;;;;;;;-0.56;100.00;101760.78;5025455;28;20049;-76
2023/12/09 06:41:40;;;;;;;26.95;25.30;;;;;;;-0.40;100.00;101763.97;5028566;28;20042;-76
2023/12/09 06:44:07;;;;;;;27.10;25.30;;;;;;;-0.40;100.00;101765.75;5028874;28;20042;-76
2023/12/09 06:46:37;;;;;;;26.75;25.00;;;;;;;-0.32;100.00;101774.72;5016545;28;20049;-76
2023/12/09 06:49:06;;;;;;;29.45;27.42;;;;;;;-0.42;100.00;101776.31;5021098;28;20049;-76
2023/12/09 06:51:32;;;;;;;29.20;26.92;;;;;;;-0.42;100.00;101778.94;5015771;28;20060;-75
2023/12/09 06:54:10;;;;;;;30.45;28.10;;;;;;;-0.43;100.00;101774.63;5024611;28;20057;-76
2023/12/09 06:56:36;;;;;;;28.90;26.55;;;;;;;-0.46;100.00;101777.47;5023130;28;20049;-76
2023/12/09 06:59:03;;;;;;;24.83;23.23;;;;;;;-0.50;100.00;101782.06;5024827;28;20046;-71
2023/12/09 07:01:33;;;;;;;28.45;26.35;;;;;;;-0.46;100.00;101780.91;5020948;28;20054;-71
2023/12/09 07:04:00;;;;;;;26.50;24.70;;;;;;;-0.46;100.00;101782.69;5021535;28;20052;-76
2023/12/09 07:06:28;;;;;;;29.02;27.23;;;;;;;-0.35;100.00;101787.97;5026104;28;20446;-76
2023/12/09 07:08:57;;;;;;;27.52;25.73;;;;;;;-0.22;100.00;101789.72;5025064;28;20053;-76
2023/12/09 07:11:25;;;;;;;28.02;26.13;;;;;;;-0.18;100.00;101788.56;5020915;28;20116;-71
2023/12/09 07:13:52;;;;;;;28.33;25.95;;;;;;;-0.28;100.00;101791.81;5022157;28;20102;-76
2023/12/09 07:16:20;;;;;;;26.40;24.60;;;;;;;-0.28;100.00;101788.38;5016155;28;20049;-76
2023/12/09 07:18:48;;;;;;;29.65;27.48;;;;;;;-0.21;100.00;101780.94;5023471;28;20049;-76
2023/12/09 07:21:22;;;;;;;27.85;25.73;;;;;;;-0.22;100.00;101782.72;5026959;28;20076;-77
2023/12/09 07:23:49;;;;;;;26.50;24.73;;;;;;;-0.23;100.00;101783.66;5026624;28;20510;-77
2023/12/09 07:26:16;;;;;;;29.30;27.27;;;;;;;-0.16;100.00;101787.50;5021852;28;20494;-77
2023/12/09 07:28:44;;;;;;;29.15;27.08;;;;;;;-0.19;100.00;101785.09;5022424;28;20068;-77
2023/12/09 07:31:11;;;;;;;27.95;26.05;;;;;;;-0.27;100.00;101788.28;5026983;28;20498;-77
2023/12/09 07:33:39;;;;;;;27.98;26.08;;;;;;;-0.22;100.00;101785.31;5029964;28;20057;-77
2023/12/09 07:36:07;;;;;;;30.48;27.95;;;;;;;-0.26;100.00;101783.88;5023536;28;20430;-71
2023/12/09 07:38:34;;;;;;;29.00;26.92;;;;;;;-0.20;100.00;101782.63;5025651;28;20048;-71
2023/12/09 07:41:01;;;;;;;29.65;27.13;;;;;;;-0.13;100.00;101779.44;5028106;28;20053;-70
2023/12/09 07:43:28;;;;;;;28.05;26.15;;;;;;;-0.09;100.00;101774.81;5026972;28;20515;-70
2023/12/09 07:45:56;;;;;;;28.80;26.75;;;;;;;-0.14;100.00;101774.34;5026558;28;20144;-70
2023/12/09 07:48:23;;;;;;;32.28;29.95;;;;;;;-0.20;100.00;101764.34;5024714;28;20050;-71
2023/12/09 07:50:50;;;;;;;25.55;23.80;;;;;;;-0.15;100.00;101775.28;5024721;28;20050;-71
2023/12/09 07:53:17;;;;;;;26.58;24.75;;;;;;;-0.05;100.00;101771.91;5021597;28;20135;-71
2023/12/09 07:55:44;;;;;;;27.85;25.95;;;;;;;-0.05;100.00;101777.13;5025138;28;20068;-71
2023/12/09 07:58:11;;;;;;;25.65;23.88;;;;;;;-0.01;100.00;101772.50;5026981;28;20045;-70
2023/12/09 08:00:38;;;;;;;26.33;24.35;;;;;;;-0.03;100.00;101774.38;5030014;28;20049;-71
2023/12/09 08:03:07;;;;;;;26.10;24.40;;;;;;;0.04;100.00;101778.25;5029480;28;20158;-71
2023/12/09 08:05:34;;;;;;;27.20;25.23;;;;;;;0.02;100.00;101776.69;5030720;28;20064;-71
2023/12/09 08:08:01;;;;;;;26.13;24.33;;;;;;;-0.07;100.00;101771.16;5021817;28;20050;-71
2023/12/09 08:10:29;;;;;;;29.63;27.60;;;;;;;0.19;100.00;101776.28;5019324;28;20029;-70
2023/12/09 08:12:58;;;;;;;28.75;26.27;;;;;;;0.27;100.00;101781.75;5024395;28;20072;-70
2023/12/09 08:15:26;;;;;;;28.38;26.30;;;;;;;0.32;100.00;101784.88;5025419;28;20065;-71
2023/12/09 08:18:00;;;;;;;30.60;28.40;;;;;;;0.30;100.00;101791.16;5027175;28;20057;-76
2023/12/09 08:20:29;;;;;;;28.10;26.10;;;;;;;0.18;100.00;101779.81;5026595;28;20068;-77
2023/12/09 08:22:56;;;;;;;28.15;26.15;;;;;;;0.43;100.00;101771.03;5028095;28;20057;-79
2023/12/09 08:25:23;;;;;;;27.23;25.17;;;;;;;0.35;100.00;101770.75;5029516;28;20055;-77
2023/12/09 08:27:49;;;;;;;27.27;25.27;;;;;;;0.31;100.00;101771.94;5027705;28;20064;-77
2023/12/09 08:30:16;;;;;;;28.15;26.08;;;;;;;0.65;100.00;101772.88;5025976;28;20054;-77
2023/12/09 08:32:44;;;;;;;26.95;24.75;;;;;;;0.58;100.00;101766.44;5023574;28;20131;-71
2023/12/09 08:35:11;;;;;;;27.23;25.33;;;;;;;0.39;100.00;101765.22;5021167;28;20471;-71
2023/12/09 08:37:40;;;;;;;26.35;24.45;;;;;;;0.27;100.00;101773.09;5030250;28;20607;-70
2023/12/09 08:40:11;;;;;;;27.88;25.75;;;;;;;-0.05;100.00;101764.06;5019340;28;20053;-70
2023/12/09 08:42:39;;;;;;;27.52;25.38;;;;;;;0.23;100.00;101756.81;5022831;28;20169;-77
2023/12/09 08:45:08;;;;;;;26.20;24.38;;;;;;;0.47;100.00;101754.16;5031151;28;20053;-77
2023/12/09 08:47:35;;;;;;;26.30;24.50;;;;;;;0.57;100.00;101755.13;5024707;28;20042;-76
2023/12/09 08:50:02;;;;;;;28.98;26.83;;;;;;;0.32;100.00;101744.84;5030665;28;20049;-71
2023/12/09 08:52:29;;;;;;;27.88;25.88;;;;;;;0.20;100.00;101749.22;5025449;28;21249;-71
2023/12/09 08:54:59;;;;;;;28.10;26.10;;;;;;;0.66;100.00;101753.59;5015483;28;20042;-70
2023/12/09 08:57:27;;;;;;;29.80;27.70;;;;;;;0.91;100.00;101757.81;5023884;28;20431;-70
2023/12/09 08:59:53;;;;;;;29.92;27.83;;;;;;;1.26;100.00;101754.25;5009860;28;20451;-77
2023/12/09 09:02:21;;;;;;;31.73;29.08;;;;;;;1.50;100.00;101752.31;5023934;28;20056;-77
2023/12/09 09:04:52;;;;;;;26.20;24.30;;;;;;;1.20;100.00;101745.09;5029894;28;20049;-77
2023/12/09 09:07:19;;;;;;;29.20;27.00;;;;;;;1.17;100.00;101734.03;5035519;28;20063;-71
2023/12/09 09:09:46;;;;;;;28.05;25.95;;;;;;;0.97;100.00;101730.34;5040486;28;21157;-76
2023/12/09 09:12:16;;;;;;;26.27;24.38;;;;;;;0.80;100.00;101736.88;5025810;28;20057;-75
2023/12/09 09:14:43;;;;;;;28.52;26.63;;;;;;;1.30;100.00;101739.97;5034526;28;20053;-76
2023/12/09 09:17:12;;;;;;;28.02;26.08;;;;;;;1.44;100.00;101739.72;5033660;28;20786;-71
2023/12/09 09:19:39;;;;;;;26.30;24.35;;;;;;;1.38;100.00;101734.97;5037683;28;20522;-71
2023/12/09 09:22:05;;;;;;;26.63;24.73;;;;;;;1.35;100.00;101728.19;5036015;28;20147;-71
2023/12/09 09:24:33;;;;;;;24.63;22.92;;;;;;;1.10;100.00;101731.91;5037134;28;20143;-71
2023/12/09 09:27:00;;;;;;;26.88;24.98;;;;;;;1.44;100.00;101725.78;5031539;28;20067;-71
2023/12/09 09:29:27;;;;;;;24.83;23.13;;;;;;;1.44;100.00;101725.78;5035832;28;20141;-71
2023/12/09 09:31:54;;;;;;;25.92;24.13;;;;;;;1.51;100.00;101717.34;5032776;28;20053;-71
2023/12/09 09:34:21;;;;;;;26.25;24.35;;;;;;;1.40;100.00;101709.50;5037303;28;20052;-71
2023/12/09 09:36:48;;;;;;;25.73;23.83;;;;;;;1.50;100.00;101717.44;5035404;28;20049;-71
2023/12/09 09:39:17;;;;;;;26.50;24.33;;;;;;;1.34;100.00;101710.00;5034411;28;20135;-71
2023/12/09 09:41:54;;;;;;;25.73;23.92;;;;;;;1.57;100.00;101697.66;5033388;28;20062;-70
2023/12/09 09:44:23;;;;;;;24.85;23.17;;;;;;;1.20;100.00;101702.38;5032192;28;20072;-70
2023/12/09 09:46:57;;;;;;;26.10;24.30;;;;;;;1.76;100.00;101695.25;5024424;28;20115;-71
2023/12/09 09:49:26;;;;;;;25.50;23.77;;;;;;;1.66;100.00;101690.88;5025921;28;20241;-72
2023/12/09 09:51:57;;;;;;;27.65;25.65;;;;;;;1.76;100.00;101691.78;5026791;28;20057;-71
2023/12/09 09:54:30;;;;;;;24.60;22.90;;;;;;;1.36;100.00;101697.59;5033135;28;20056;-70
2023/12/09 09:56:58;;;;;;;25.80;24.00;;;;;;;1.47;100.00;101686.28;5036107;28;20061;-71
2023/12/09 09:59:26;;;;;;;27.90;25.90;;;;;;;1.50;100.00;101678.19;5024611;28;20457;-71
2023/12/09 10:01:54;;;;;;;27.40;25.40;;;;;;;1.42;100.00;101670.09;5027615;28;20057;-70
2023/12/09 10:04:21;;;;;;;27.30;25.30;;;;;;;2.86;100.00;101674.69;5022217;28;20495;-71
2023/12/09 10:06:49;;;;;;;32.63;29.90;;;;;;;2.33;100.00;101666.13;5024764;28;20562;-71
2023/12/09 10:09:16;;;;;;;27.70;25.08;;;;;;;1.81;100.00;101666.03;5023955;28;20483;-70
2023/12/09 10:11:43;;;;;;;29.85;27.70;;;;;;;1.97;100.00;101665.63;5022086;28;20057;-70
2023/12/09 10:14:11;;;;;;;27.90;25.63;;;;;;;1.99;100.00;101663.69;5023410;28;20046;-70
2023/12/09 10:16:38;;;;;;;24.15;22.45;;;;;;;1.49;100.00;101666.88;5020077;28;20050;-71
2023/12/09 10:19:08;;;;;;;29.98;27.77;;;;;;;2.05;100.00;101650.91;5022196;28;20088;-77
2023/12/09 10:21:35;;;;;;;28.38;26.17;;;;;;;1.77;100.00;101646.31;5026847;28;20145;-77
2023/12/09 10:24:05;;;;;;;30.80;28.67;;;;;;;1.56;100.00;101654.13;5024733;28;20053;-70
2023/12/09 10:26:33;;;;;;;25.67;23.88;;;;;;;1.89;100.00;101647.91;5021769;28;20041;-70
2023/12/09 10:29:00;;;;;;;28.35;26.30;;;;;;;2.25;100.00;101648.44;5027338;28;20053;-72
2023/12/09 10:31:29;;;;;;;27.90;25.90;;;;;;;2.16;100.00;101644.78;5022387;28;20054;-71
2023/12/09 10:33:56;;;;;;;25.83;24.00;;;;;;;1.66;100.00;101641.91;5020451;28;20059;-70
2023/12/09 10:36:28;;;;;;;25.27;23.58;;;;;;;1.75;100.00;101649.03;5023307;28;20155;-70
2023/12/09 10:38:55;;;;;;;26.50;24.70;;;;;;;1.52;100.00;101629.16;5032020;28;20060;-77
2023/12/09 10:41:23;;;;;;;25.85;24.05;;;;;;;2.33;100.00;101640.75;5013687;28;20055;-76
2023/12/09 10:43:49;;;;;;;26.88;24.33;;;;;;;2.00;100.00;101649.66;5025800;28;20054;-71
2023/12/09 10:46:16;;;;;;;25.45;23.60;;;;;;;1.66;100.00;101644.53;5017296;28;20060;-71
2023/12/09 10:48:43;;;;;;;25.67;23.77;;;;;;;1.76;100.00;101652.50;5024450;28;20592;-71
2023/12/09 10:51:11;;;;;;;26.52;23.83;;;;;;;2.17;100.00;101646.44;5019483;28;20072;-71
2023/12/09 10:53:41;;;;;;;23.65;21.95;;;;;;;1.59;100.00;101641.59;5026492;28;20057;-71
2023/12/09 10:56:11;;;;;;;24.85;23.17;;;;;;;1.67;100.00;101640.16;5023989;28;20053;-77
2023/12/09 10:58:38;;;;;;;25.30;23.60;;;;;;;1.61;100.00;101638.88;5022321;28;20046;-71
2023/12/09 11:01:11;;;;;;;24.95;23.15;;;;;;;1.64;100.00;101641.25;5015540;28;20053;-71
2023/12/09 11:03:39;;;;;;;23.50;21.80;;;;;;;1.20;100.00;101657.91;5028118;28;20045;-70
2023/12/09 11:06:09;;;;;;;23.20;21.60;;;;;;;1.38;100.00;101649.41;5024870;28;21386;-71
2023/12/09 11:08:37;;;;;;;21.83;20.33;;;;;;;1.21;100.00;101652.56;5024063;28;20049;-77